createdAt,value
2022-09-03T00:01:13.405Z,83.4
2022-09-03T00:03:39.484Z,83.8
2022-09-03T00:06:04.626Z,84.7
2022-09-03T00:08:30.696Z,84.9
2022-09-03T00:10:56.762Z,84.9
2022-09-03T00:13:22.861Z,84.1
2022-09-03T00:15:48.963Z,83.8
2022-09-03T00:18:15.066Z,82.5
2022-09-03T00:20:41.153Z,81.6
2022-09-03T00:23:06.272Z,81.3
2022-09-03T00:25:31.390Z,81.9
2022-09-03T00:27:56.514Z,81.2
2022-09-03T00:30:21.651Z,81.3
2022-09-03T00:32:46.722Z,80.5
2022-09-03T00:35:11.844Z,80.7
2022-09-03T00:37:37.942Z,81.6
2022-09-03T00:40:04.032Z,81.7
2022-09-03T00:42:30.137Z,81.7
2022-09-03T00:44:56.263Z,80.3
2022-09-03T00:47:22.320Z,79.7
2022-09-03T00:49:48.472Z,80
2022-09-03T00:52:14.522Z,78.9
2022-09-03T00:54:40.599Z,78.9
2022-09-03T00:57:06.694Z,79
2022-09-03T00:59:32.811Z,77.6
2022-09-03T01:01:58.869Z,77.3
2022-09-03T01:04:24.976Z,77.2
2022-09-03T01:06:50.077Z,77.3
2022-09-03T01:09:16.183Z,77.3
2022-09-03T01:11:42.280Z,77.6
2022-09-03T01:14:08.365Z,77.2
2022-09-03T01:16:34.476Z,77.8
2022-09-03T01:19:00.560Z,77.8
2022-09-03T01:21:26.659Z,77.3
2022-09-03T01:23:51.796Z,78
2022-09-03T01:26:16.896Z,77.9
2022-09-03T01:28:42.016Z,77.1
2022-09-03T01:31:07.134Z,77.8
2022-09-03T01:33:33.228Z,78.2
2022-09-03T01:35:59.314Z,77.9
2022-09-03T01:38:25.400Z,77.7
2022-09-03T01:40:51.500Z,77.9
2022-09-03T01:43:17.629Z,78.3
2022-09-03T01:45:43.732Z,77.8
2022-09-03T01:48:09.844Z,78.7
2022-09-03T01:50:35.888Z,78
2022-09-03T01:53:01.974Z,78.3
2022-09-03T01:55:28.074Z,79.5
2022-09-03T01:57:54.181Z,79.2
2022-09-03T02:00:20.264Z,80.4
2022-09-03T02:02:45.395Z,79.1
2022-09-03T02:05:11.483Z,79.3
2022-09-03T02:07:37.583Z,77.9
2022-09-03T02:10:03.669Z,77.7
2022-09-03T02:12:29.766Z,77.9
2022-09-03T02:14:55.853Z,77.9
2022-09-03T02:17:21.958Z,78.2
2022-09-03T02:19:48.075Z,78.7
2022-09-03T02:22:13.161Z,79.8
2022-09-03T02:24:38.270Z,80
2022-09-03T02:27:04.370Z,78.3
2022-09-03T02:29:30.492Z,78.4
2022-09-03T02:31:56.573Z,77.9
2022-09-03T02:34:22.657Z,77.9
2022-09-03T02:36:48.786Z,78.1
2022-09-03T02:39:14.842Z,78.8
2022-09-03T02:41:40.963Z,80.9
2022-09-03T02:44:07.069Z,79.8
2022-09-03T02:46:33.201Z,80.6
2022-09-03T02:48:59.220Z,80.7
2022-09-03T02:51:25.320Z,81.4
2022-09-03T02:53:51.425Z,82.1
2022-09-03T02:56:16.526Z,82.9
2022-09-03T02:58:42.614Z,83.1
2022-09-03T03:01:08.713Z,83.8
2022-09-03T03:03:34.837Z,83.6
2022-09-03T03:06:00.928Z,82.2
2022-09-03T03:08:27.002Z,82.8
2022-09-03T03:10:53.097Z,83.3
2022-09-03T03:13:18.219Z,82.4
2022-09-03T03:15:43.356Z,83.3
2022-09-03T03:18:08.459Z,83.5
2022-09-03T03:20:33.559Z,83.8
2022-09-03T03:22:58.681Z,84.8
2022-09-03T03:25:23.806Z,84.4
2022-09-03T03:27:49.895Z,84
2022-09-03T03:30:15.985Z,83.3
2022-09-03T03:32:42.096Z,84
2022-09-03T03:35:08.179Z,83.3
2022-09-03T03:37:34.323Z,83.8
2022-09-03T03:40:00.373Z,83.5
2022-09-03T03:42:26.451Z,83.7
2022-09-03T03:44:52.550Z,84.4
2022-09-03T03:47:18.639Z,84.9
2022-09-03T03:49:44.745Z,84.8
2022-09-03T03:52:10.834Z,85
2022-09-03T03:54:36.941Z,84.4
2022-09-03T03:57:02.043Z,84.1
2022-09-03T03:59:28.154Z,84.3
2022-09-03T04:01:54.298Z,85.2
2022-09-03T04:04:20.348Z,85.8
2022-09-03T04:06:46.464Z,85.3
2022-09-03T04:09:12.510Z,85.7
2022-09-03T04:11:38.614Z,84.9
2022-09-03T04:16:29.850Z,86.1
2022-09-03T04:18:54.958Z,86.3
2022-09-03T04:21:20.113Z,86.1
2022-09-03T04:23:45.177Z,86.5
2022-09-03T04:26:10.328Z,87
2022-09-03T04:28:36.399Z,87.1
2022-09-03T04:31:02.489Z,87.5
2022-09-03T04:33:28.574Z,87
2022-09-03T04:35:54.674Z,87.2
2022-09-03T04:38:20.773Z,87.9
2022-09-03T04:40:46.867Z,88.1
2022-09-03T04:43:12.967Z,88.1
2022-09-03T04:45:39.045Z,87.9
2022-09-03T04:48:05.142Z,88.2
2022-09-03T04:50:31.262Z,88.1
2022-09-03T04:52:57.332Z,88.1
2022-09-03T04:55:23.445Z,88.1
2022-09-03T04:57:48.550Z,87.6
2022-09-03T05:00:14.641Z,87.3
2022-09-03T05:02:40.737Z,87.2
2022-09-03T05:05:06.841Z,87
2022-09-03T05:07:32.962Z,86.3
2022-09-03T05:09:59.014Z,85.9
2022-09-03T05:12:25.114Z,85.9
2022-09-03T05:14:50.230Z,86
2022-09-03T05:17:15.353Z,86.9
2022-09-03T05:19:40.470Z,87.9
2022-09-03T05:22:05.572Z,87.7
2022-09-03T05:24:31.678Z,87.5
2022-09-03T05:26:57.782Z,87.6
2022-09-03T05:29:23.854Z,87.3
2022-09-03T05:31:49.956Z,86.5
2022-09-03T05:34:16.086Z,87.3
2022-09-03T05:36:42.167Z,87.2
2022-09-03T05:39:08.239Z,87.2
2022-09-03T05:41:34.333Z,87.3
2022-09-03T05:44:00.430Z,86
2022-09-03T05:46:25.543Z,85.3
2022-09-03T05:48:51.644Z,85.2
2022-09-03T05:51:17.746Z,84.8
2022-09-03T05:53:43.819Z,85.3
2022-09-03T05:56:09.910Z,86
2022-09-03T05:58:36.030Z,86.4
2022-09-03T06:01:02.135Z,86.6
2022-09-03T06:03:28.191Z,86.1
2022-09-03T06:05:54.296Z,85.4
2022-09-03T06:08:20.403Z,85.4
2022-09-03T06:10:45.517Z,85.7
2022-09-03T06:13:10.660Z,85.8
2022-09-03T06:15:35.750Z,86.6
2022-09-03T06:18:00.864Z,86.2
2022-09-03T06:20:25.995Z,85.2
2022-09-03T06:22:51.099Z,86.2
2022-09-03T06:25:17.189Z,85.8
2022-09-03T06:27:43.286Z,84.6
2022-09-03T06:30:09.372Z,85.2
2022-09-03T06:32:35.464Z,84.3
2022-09-03T06:35:01.573Z,83.4
2022-09-03T06:37:27.655Z,83.8
2022-09-03T06:39:53.788Z,82.8
2022-09-03T06:44:45.956Z,83.9
2022-09-03T06:47:12.061Z,84.9
2022-09-03T06:49:38.138Z,84.1
2022-09-03T06:52:04.244Z,83.3
2022-09-03T06:54:29.356Z,82.8
2022-09-03T06:56:55.456Z,83.7
2022-09-03T06:59:21.551Z,81
2022-09-03T07:01:47.628Z,81
2022-09-03T07:04:13.724Z,81.3
2022-09-03T07:06:39.848Z,81.5
2022-09-03T07:09:05.924Z,80.1
2022-09-03T07:11:32.026Z,78.9
2022-09-03T07:13:57.150Z,79.7
2022-09-03T07:16:22.267Z,79.9
2022-09-03T07:18:47.369Z,77.9
2022-09-03T07:21:12.479Z,79.4
2022-09-03T07:23:38.585Z,78.5
2022-09-03T07:26:04.686Z,78.4
2022-09-03T07:28:30.816Z,77
2022-09-03T07:30:56.876Z,78
2022-09-03T07:33:22.961Z,76.9
2022-09-03T07:35:49.048Z,76.1
2022-09-03T07:38:15.161Z,75.8
2022-09-03T07:40:41.244Z,77.2
2022-09-03T07:43:07.337Z,77.5
2022-09-03T07:45:33.431Z,76.3
2022-09-03T07:47:59.532Z,76.2
2022-09-03T07:50:25.649Z,75.6
2022-09-03T07:52:50.744Z,75.7
2022-09-03T07:55:16.884Z,75.3
2022-09-03T07:57:42.929Z,74.8
2022-09-03T08:00:09.025Z,75.2
2022-09-03T08:02:35.140Z,74.4
2022-09-03T08:05:01.207Z,73.5
2022-09-03T08:07:27.317Z,72.9
2022-09-03T08:09:52.471Z,73.4
2022-09-03T08:12:17.591Z,73.6
2022-09-03T08:14:42.717Z,73.4
2022-09-03T08:17:07.781Z,73.8
2022-09-03T08:19:33.873Z,73.4
2022-09-03T08:24:26.083Z,73.5
2022-09-03T08:26:52.158Z,73
2022-09-03T08:29:18.498Z,72.9
2022-09-03T08:31:44.347Z,73.5
2022-09-03T08:34:10.491Z,73.2
2022-09-03T08:36:36.546Z,71.6
2022-09-03T08:39:02.635Z,73.3
2022-09-03T08:41:28.718Z,72.8
2022-09-03T08:43:54.829Z,72.7
2022-09-03T08:46:20.920Z,73.5
2022-09-03T08:48:46.028Z,72.6
2022-09-03T08:51:12.118Z,73.1
2022-09-03T08:53:38.232Z,73.9
2022-09-03T08:56:04.320Z,74
2022-09-03T08:58:30.420Z,74.4
2022-09-03T09:00:56.502Z,74.4
2022-09-03T09:03:22.612Z,75.1
2022-09-03T09:05:48.698Z,74.8
2022-09-03T09:08:13.884Z,74
2022-09-03T09:10:38.932Z,73.6
2022-09-03T09:13:04.062Z,72.4
2022-09-03T09:15:29.175Z,72.5
2022-09-03T09:17:55.255Z,72.5
2022-09-03T09:20:21.370Z,71.8
2022-09-03T09:22:47.454Z,70.3
2022-09-03T09:25:13.548Z,69.6
2022-09-03T09:27:39.649Z,69
2022-09-03T09:30:05.746Z,68.3
2022-09-03T09:32:31.835Z,68
2022-09-03T09:34:57.936Z,68.4
2022-09-03T09:37:24.041Z,67.8
2022-09-03T09:39:50.118Z,68.6
2022-09-03T09:42:16.226Z,67.7
2022-09-03T09:44:42.321Z,67.7
2022-09-03T09:47:07.426Z,67.5
2022-09-03T09:49:33.512Z,66.6
2022-09-03T09:51:59.622Z,66.5
2022-09-03T09:54:25.715Z,66
2022-09-03T09:56:51.823Z,66.3
2022-09-03T09:59:17.910Z,67.5
2022-09-03T10:01:44.005Z,66.8
2022-09-03T10:04:09.128Z,67.3
2022-09-03T10:06:34.225Z,67.3
2022-09-03T10:08:59.353Z,66.1
2022-09-03T10:11:24.474Z,66.1
2022-09-03T10:13:50.559Z,66.2
2022-09-03T10:16:16.664Z,65.3
2022-09-03T10:18:42.755Z,65.1
2022-09-03T10:21:08.887Z,65.1
2022-09-03T10:23:34.936Z,64
2022-09-03T10:26:01.046Z,63.8
2022-09-03T10:28:27.117Z,63.5
2022-09-03T10:30:53.234Z,63
2022-09-03T10:33:19.330Z,64
2022-09-03T10:35:45.422Z,65.3
2022-09-03T10:38:11.529Z,64.3
2022-09-03T10:40:37.617Z,64.1
2022-09-03T10:43:02.721Z,64.8
2022-09-03T10:45:28.809Z,65.6
2022-09-03T10:47:54.919Z,64.7
2022-09-03T10:50:21.001Z,65.6
2022-09-03T10:52:47.117Z,63.8
2022-09-03T10:55:13.197Z,63.3
2022-09-03T10:57:39.289Z,64.6
2022-09-03T11:00:04.417Z,65.1
2022-09-03T11:02:29.526Z,63.8
2022-09-03T11:04:55.614Z,64.5
2022-09-03T11:07:21.714Z,64.6
2022-09-03T11:09:47.810Z,64.9
2022-09-03T11:12:13.895Z,65.9
2022-09-03T11:14:39.992Z,66.4
2022-09-03T11:17:06.107Z,66.2
2022-09-03T11:19:32.187Z,65.1
2022-09-03T11:21:58.268Z,64.5
2022-09-03T11:24:24.379Z,64.5
2022-09-03T11:26:50.479Z,64.5
2022-09-03T11:29:16.610Z,65.1
2022-09-03T11:31:42.663Z,65.3
2022-09-03T11:34:07.775Z,64.5
2022-09-03T11:36:33.866Z,64.8
2022-09-03T11:38:59.957Z,64.4
2022-09-03T11:41:26.056Z,64.8
2022-09-03T11:43:52.147Z,64.9
2022-09-03T11:46:18.257Z,65.1
2022-09-03T11:48:44.339Z,64.3
2022-09-03T11:51:09.500Z,64.7
2022-09-03T11:53:34.583Z,65.3
2022-09-03T11:55:59.720Z,66.5
2022-09-03T11:58:24.819Z,66.2
2022-09-03T12:00:49.928Z,67.3
2022-09-03T12:03:15.079Z,65.6
2022-09-03T12:05:41.142Z,66.3
2022-09-03T12:08:07.291Z,66.5
2022-09-03T12:10:33.320Z,67
2022-09-03T12:12:59.447Z,66.5
2022-09-03T12:15:25.517Z,67.1
2022-09-03T12:17:51.623Z,67.9
2022-09-03T12:20:17.728Z,67.5
2022-09-03T12:22:43.803Z,69
2022-09-03T12:25:09.895Z,69.1
2022-09-03T12:27:35.990Z,70.3
2022-09-03T12:30:02.094Z,70.9
2022-09-03T12:32:28.176Z,71.7
2022-09-03T12:34:53.290Z,74
2022-09-03T12:37:19.379Z,74.8
2022-09-03T12:39:45.474Z,76.7
2022-09-03T12:42:11.579Z,78.3
2022-09-03T12:44:38.694Z,78.9
2022-09-03T12:47:03.767Z,81.8
2022-09-03T12:49:29.869Z,82.9
2022-09-03T12:51:55.004Z,84.9
2022-09-03T12:54:20.105Z,86.7
2022-09-03T12:56:46.189Z,87.8
2022-09-03T12:59:11.308Z,90.4
2022-09-03T13:01:36.427Z,90.6
2022-09-03T13:04:02.538Z,92.5
2022-09-03T13:06:28.640Z,92.4
2022-09-03T13:08:54.712Z,93.9
2022-09-03T13:11:20.805Z,95.2
2022-09-03T13:13:46.898Z,93.8
2022-09-03T13:16:12.986Z,93.8
2022-09-03T13:18:39.106Z,95.7
2022-09-03T13:21:05.228Z,94.7
2022-09-03T13:23:31.293Z,94.3
2022-09-03T13:25:57.400Z,96.5
2022-09-03T13:28:23.491Z,94.9
2022-09-03T13:30:49.590Z,96.2
2022-09-03T13:33:14.681Z,96.1
2022-09-03T13:35:40.779Z,95.6
2022-09-03T13:38:06.862Z,95.4
2022-09-03T13:40:32.977Z,96.3
2022-09-03T13:42:59.061Z,97.6
2022-09-03T13:45:25.140Z,98.4
2022-09-03T13:47:51.241Z,98
2022-09-03T13:50:16.383Z,97.4
2022-09-03T13:52:41.524Z,97.8
2022-09-03T13:55:06.622Z,97.6
2022-09-03T13:57:32.698Z,96.9
2022-09-03T13:59:58.788Z,94.5
2022-09-03T14:02:24.895Z,92
2022-09-03T14:04:50.987Z,89.6
2022-09-03T14:07:17.072Z,85.5
2022-09-03T14:09:43.177Z,80.3
2022-09-03T14:12:09.263Z,76.4
2022-09-03T14:14:35.359Z,77.2
2022-09-03T14:17:01.461Z,78.1
2022-09-03T14:19:27.555Z,72.7
2022-09-03T14:21:53.662Z,73.2
2022-09-03T14:24:19.739Z,75.9
2022-09-03T14:26:44.839Z,74.3
2022-09-03T14:29:10.951Z,70.4
2022-09-03T14:31:37.044Z,71.2
2022-09-03T14:34:03.143Z,76
2022-09-03T14:36:29.266Z,78.2
2022-09-03T14:38:55.320Z,83.4
2022-09-03T14:41:20.442Z,82.7
2022-09-03T14:43:45.558Z,83.7
2022-09-03T14:46:11.658Z,84.9
2022-09-03T14:48:37.743Z,84.8
2022-09-03T14:51:03.835Z,81.5
2022-09-03T14:53:29.931Z,82.9
2022-09-03T14:55:56.041Z,79.1
2022-09-03T14:58:22.127Z,78.6
2022-09-03T15:00:48.237Z,82.3
2022-09-03T15:03:14.359Z,82
2022-09-03T15:05:40.437Z,83.6
2022-09-03T15:08:06.531Z,84.6
2022-09-03T15:10:32.655Z,85.9
2022-09-03T15:12:58.700Z,86.2
2022-09-03T15:15:23.815Z,86.4
2022-09-03T15:17:49.932Z,89.6
2022-09-03T15:20:16.009Z,87.4
2022-09-03T15:22:42.141Z,87.7
2022-09-03T15:25:08.242Z,90.7
2022-09-03T15:27:34.287Z,90.6
2022-09-03T15:30:00.378Z,89.7
2022-09-03T15:32:25.518Z,88.7
2022-09-03T15:34:50.620Z,86.7
2022-09-03T15:37:15.743Z,85.8
2022-09-03T15:39:40.925Z,83.4
2022-09-03T15:42:05.995Z,79.2
2022-09-03T15:44:31.087Z,72.9
2022-09-03T15:46:57.177Z,71.3
2022-09-03T15:49:23.272Z,73.5
2022-09-03T15:51:49.377Z,75.6
2022-09-03T15:54:15.461Z,78
2022-09-03T15:56:41.620Z,82
2022-09-03T15:59:07.666Z,84
2022-09-03T16:01:33.830Z,80.1
2022-09-03T16:03:59.860Z,78.2
2022-09-03T16:06:25.952Z,79.5
2022-09-03T16:08:52.073Z,77.8
2022-09-03T16:11:18.147Z,75.6
2022-09-03T16:13:44.259Z,71.8
2022-09-03T16:16:09.357Z,71.6
2022-09-03T16:18:35.467Z,74.6
2022-09-03T16:21:01.558Z,75.4
2022-09-03T16:23:27.674Z,76.2
2022-09-03T16:25:53.747Z,75.2
2022-09-03T16:28:19.861Z,77.4
2022-09-03T16:30:45.920Z,80.5
2022-09-03T16:33:11.043Z,82.2
2022-09-03T16:35:36.163Z,82.8
2022-09-03T16:38:01.270Z,82.2
2022-09-03T16:40:26.420Z,83.8
2022-09-03T16:42:52.497Z,87.8
2022-09-03T16:45:18.572Z,89.8
2022-09-03T16:47:44.703Z,91.1
2022-09-03T16:50:10.767Z,91.3
2022-09-03T16:52:36.851Z,90.6
2022-09-03T16:55:03.006Z,90.7
2022-09-03T16:57:29.069Z,92.3
2022-09-03T16:59:55.154Z,92.8
2022-09-03T17:02:21.230Z,93
2022-09-03T17:04:47.337Z,93.8
2022-09-03T17:07:13.467Z,94.1
2022-09-03T17:09:39.519Z,93.8
2022-09-03T17:12:04.629Z,94.3
2022-09-03T17:16:56.820Z,94.8
2022-09-03T17:19:22.918Z,95.4
2022-09-03T17:21:49.019Z,95.5
2022-09-03T17:24:15.106Z,95.4
2022-09-03T17:26:41.204Z,96.3
2022-09-03T17:29:07.306Z,96.3
2022-09-03T17:31:32.427Z,96.6
2022-09-03T17:33:57.531Z,96.3
2022-09-03T17:36:22.651Z,95.9
2022-09-03T17:38:47.755Z,96.2
2022-09-03T17:41:13.889Z,97.1
2022-09-03T17:43:39.943Z,96.8
2022-09-03T17:46:06.070Z,96.9
2022-09-03T17:48:32.149Z,97.5
2022-09-03T17:50:58.237Z,97.8
2022-09-03T17:53:24.342Z,98.5
2022-09-03T17:55:50.413Z,98.4
2022-09-03T17:58:16.530Z,98.9
2022-09-03T18:00:42.643Z,99
2022-09-03T18:03:08.724Z,99
2022-09-03T18:05:34.839Z,99.4
2022-09-03T18:08:00.893Z,99.7
2022-09-03T18:10:26.002Z,100
2022-09-03T18:12:52.108Z,99.9
2022-09-03T18:15:18.195Z,99.7
2022-09-03T18:17:44.298Z,99.7
2022-09-03T18:20:10.388Z,100
2022-09-03T18:22:36.504Z,100
2022-09-03T18:25:02.607Z,100
2022-09-03T18:27:27.705Z,100
2022-09-03T18:29:52.809Z,100
2022-09-03T18:32:18.918Z,100
2022-09-03T18:34:44.047Z,100
2022-09-03T18:37:09.172Z,100
2022-09-03T18:39:35.242Z,100
2022-09-03T18:42:01.354Z,100
2022-09-03T18:44:27.433Z,100
2022-09-03T18:46:53.533Z,100
2022-09-03T18:49:19.630Z,100
2022-09-03T18:51:45.759Z,100
2022-09-03T18:54:11.798Z,100
2022-09-03T18:56:37.911Z,100
2022-09-03T18:59:04.009Z,100
2022-09-03T19:01:30.096Z,100
2022-09-03T19:03:56.208Z,100
2022-09-03T19:06:22.312Z,100
2022-09-03T19:08:47.465Z,100
2022-09-03T19:11:13.495Z,100
2022-09-03T19:13:39.584Z,100
2022-09-03T19:16:05.712Z,100
2022-09-03T19:18:31.777Z,100
2022-09-03T19:23:23.968Z,100
2022-09-03T19:25:50.061Z,100
2022-09-03T19:28:16.174Z,100
2022-09-03T19:30:42.247Z,100
2022-09-03T19:33:07.404Z,100
2022-09-03T19:35:32.476Z,100
2022-09-03T19:37:57.605Z,100
2022-09-03T19:40:22.706Z,100
2022-09-03T19:42:48.818Z,100
2022-09-03T19:45:14.915Z,100
2022-09-03T19:47:41.012Z,100
2022-09-03T19:50:07.088Z,100
2022-09-03T19:52:33.221Z,100
2022-09-03T19:54:59.299Z,100
2022-09-03T19:57:25.375Z,100
2022-09-03T19:59:51.475Z,100
2022-09-03T20:02:17.586Z,100
2022-09-03T20:04:43.704Z,100
2022-09-03T20:07:09.759Z,100
2022-09-03T20:09:35.867Z,100
2022-09-03T20:12:00.990Z,100
2022-09-03T20:14:27.060Z,100
2022-09-03T20:16:53.152Z,100
2022-09-03T20:19:19.241Z,100
2022-09-03T20:21:45.378Z,100
2022-09-03T20:24:11.431Z,100
2022-09-03T20:26:37.547Z,100
2022-09-03T20:29:02.654Z,100
2022-09-03T20:31:27.760Z,100
2022-09-03T20:33:52.880Z,100
2022-09-03T20:36:17.991Z,100
2022-09-03T20:38:43.114Z,100
2022-09-03T20:41:08.215Z,100
2022-09-03T20:43:34.333Z,100
2022-09-03T20:46:00.415Z,100
2022-09-03T20:48:26.507Z,100
2022-09-03T20:50:52.606Z,100
2022-09-03T20:53:18.701Z,100
2022-09-03T20:55:44.808Z,100
2022-09-03T20:58:10.908Z,100
2022-09-03T21:00:36.983Z,100
2022-09-03T21:03:03.123Z,100
2022-09-03T21:05:29.197Z,100
2022-09-03T21:07:55.264Z,100
2022-09-03T21:10:21.389Z,100
2022-09-03T21:12:46.484Z,100
2022-09-03T21:15:12.625Z,100
2022-09-03T21:17:38.670Z,100
2022-09-03T21:20:04.770Z,100
2022-09-03T21:22:30.862Z,100
2022-09-03T21:24:56.997Z,100
2022-09-03T21:27:23.050Z,100
2022-09-03T21:29:48.173Z,100
2022-09-03T21:32:13.279Z,100
2022-09-03T21:34:39.379Z,100
2022-09-03T21:37:05.472Z,100
2022-09-03T21:39:30.603Z,100
2022-09-03T21:41:55.692Z,100
2022-09-03T21:44:21.828Z,100
2022-09-03T21:46:47.889Z,100
2022-09-03T21:49:13.981Z,100
2022-09-03T21:51:40.107Z,100
2022-09-03T21:54:06.179Z,100
2022-09-03T21:56:32.312Z,100
2022-09-03T21:58:58.369Z,100
2022-09-03T22:01:24.463Z,100
2022-09-03T22:03:49.587Z,100
2022-09-03T22:06:15.698Z,100
2022-09-03T22:08:41.772Z,100
2022-09-03T22:11:07.890Z,100
2022-09-03T22:13:34.000Z,100
2022-09-03T22:16:00.073Z,100
2022-09-03T22:18:26.145Z,100
2022-09-03T22:20:52.244Z,100
2022-09-03T22:23:18.332Z,100
2022-09-03T22:25:44.459Z,100
2022-09-03T22:28:10.540Z,100
2022-09-03T22:30:35.652Z,100
2022-09-03T22:33:00.810Z,100
2022-09-03T22:35:26.907Z,100
2022-09-03T22:37:52.972Z,100
2022-09-03T22:40:19.052Z,100
2022-09-03T22:42:45.142Z,100
2022-09-03T22:45:11.243Z,100
2022-09-03T22:47:37.329Z,100
2022-09-03T22:50:03.455Z,100
2022-09-03T22:52:29.554Z,100
2022-09-03T22:54:55.632Z,100
2022-09-03T22:57:21.734Z,100
2022-09-03T22:59:47.831Z,100
2022-09-03T23:02:13.938Z,100
2022-09-03T23:04:39.028Z,100
2022-09-03T23:07:05.121Z,100
2022-09-03T23:09:31.209Z,100
2022-09-03T23:11:57.320Z,100
2022-09-03T23:14:23.409Z,100
2022-09-03T23:16:49.494Z,100
2022-09-03T23:21:40.746Z,100
2022-09-03T23:24:05.835Z,100
2022-09-03T23:26:30.944Z,100
2022-09-03T23:28:56.055Z,100
2022-09-03T23:31:22.206Z,100
2022-09-03T23:33:48.259Z,100
2022-09-03T23:36:14.358Z,100
2022-09-03T23:38:40.439Z,100
2022-09-03T23:41:06.534Z,100
2022-09-03T23:43:32.642Z,100
2022-09-03T23:45:58.715Z,100
2022-09-03T23:48:24.822Z,100
2022-09-03T23:50:50.931Z,100
2022-09-03T23:53:17.013Z,100
2022-09-03T23:55:43.104Z,100
2022-09-03T23:58:09.214Z,100
